Flugplatz Saulgau

Für EDTU sind keine METAR/TAF Berichte vorhanden.
Es werden die Flugwettermeldungen vom Flugplatz Laupheim Airport in 36 km Entfernung angezeigt.

Bericht für ETHL

vom 04.12. um 19:20 UTC

kein Wind

Sichtweite 4500 m

feuchter Dunst

aufgebrochene Bewölkung in 13000 ft

Temperatur -2.0°C

Taupunkt -3.0°C

Luftfeuchtigkeit 93%

Luftdruck 990 hPa

ETHL 041920Z 00000KT 4500 BR BKN130 M02/M03 Q0990 GRN
Keine Prognose (TAF) verfügbar.
Impressum